sensor_id;sensor_type;location;lat;lon;timestamp;P1;durP1;ratioP1;P2;durP2;ratioP2
73859;SDS011;62197;51.632;13.700;2022-11-20T00:00:51;11.43;;;6.93;;
73859;SDS011;62197;51.632;13.700;2022-11-20T00:03:16;14.80;;;6.93;;
73859;SDS011;62197;51.632;13.700;2022-11-20T00:05:42;13.73;;;6.32;;
73859;SDS011;62197;51.632;13.700;2022-11-20T00:08:08;18.17;;;8.02;;
73859;SDS011;62197;51.632;13.700;2022-11-20T00:10:35;16.00;;;6.90;;
73859;SDS011;62197;51.632;13.700;2022-11-20T00:13:02;16.02;;;8.20;;
73859;SDS011;62197;51.632;13.700;2022-11-20T00:15:27;13.60;;;6.28;;
73859;SDS011;62197;51.632;13.700;2022-11-20T00:17:52;12.93;;;6.13;;
73859;SDS011;62197;51.632;13.700;2022-11-20T00:20:18;16.85;;;7.43;;
73859;SDS011;62197;51.632;13.700;2022-11-20T00:22:43;16.42;;;7.53;;
73859;SDS011;62197;51.632;13.700;2022-11-20T00:25:09;14.05;;;6.22;;
73859;SDS011;62197;51.632;13.700;2022-11-20T00:27:34;14.43;;;6.97;;
73859;SDS011;62197;51.632;13.700;2022-11-20T00:29:59;14.48;;;7.75;;
73859;SDS011;62197;51.632;13.700;2022-11-20T00:32:25;12.35;;;7.07;;
73859;SDS011;62197;51.632;13.700;2022-11-20T00:34:50;13.88;;;6.85;;
73859;SDS011;62197;51.632;13.700;2022-11-20T00:37:16;12.93;;;7.07;;
73859;SDS011;62197;51.632;13.700;2022-11-20T00:39:41;17.42;;;7.85;;
73859;SDS011;62197;51.632;13.700;2022-11-20T00:42:06;15.32;;;7.63;;
73859;SDS011;62197;51.632;13.700;2022-11-20T00:44:32;14.82;;;7.63;;
73859;SDS011;62197;51.632;13.700;2022-11-20T00:46:57;17.40;;;7.70;;
73859;SDS011;62197;51.632;13.700;2022-11-20T00:49:22;18.88;;;7.82;;
73859;SDS011;62197;51.632;13.700;2022-11-20T00:51:48;15.07;;;7.28;;
73859;SDS011;62197;51.632;13.700;2022-11-20T00:54:13;14.50;;;6.60;;
73859;SDS011;62197;51.632;13.700;2022-11-20T00:56:38;12.85;;;6.35;;
73859;SDS011;62197;51.632;13.700;2022-11-20T00:59:04;15.27;;;7.65;;
73859;SDS011;62197;51.632;13.700;2022-11-20T01:01:30;8.63;;;4.53;;
73859;SDS011;62197;51.632;13.700;2022-11-20T01:03:56;17.35;;;8.85;;
73859;SDS011;62197;51.632;13.700;2022-11-20T01:06:29;16.40;;;6.82;;
73859;SDS011;62197;51.632;13.700;2022-11-20T01:08:58;17.38;;;7.22;;
73859;SDS011;62197;51.632;13.700;2022-11-20T01:11:29;14.43;;;7.00;;
73859;SDS011;62197;51.632;13.700;2022-11-20T01:13:56;15.27;;;6.88;;
73859;SDS011;62197;51.632;13.700;2022-11-20T01:16:23;13.27;;;6.95;;
73859;SDS011;62197;51.632;13.700;2022-11-20T01:18:52;16.08;;;7.25;;
73859;SDS011;62197;51.632;13.700;2022-11-20T01:21:29;14.98;;;7.90;;
73859;SDS011;62197;51.632;13.700;2022-11-20T01:23:56;17.25;;;7.78;;
73859;SDS011;62197;51.632;13.700;2022-11-20T01:26:23;18.33;;;8.32;;
73859;SDS011;62197;51.632;13.700;2022-11-20T01:28:51;17.58;;;8.95;;
73859;SDS011;62197;51.632;13.700;2022-11-20T01:31:19;17.58;;;7.65;;
73859;SDS011;62197;51.632;13.700;2022-11-20T01:33:46;16.92;;;7.53;;
73859;SDS011;62197;51.632;13.700;2022-11-20T01:36:13;19.15;;;8.38;;
73859;SDS011;62197;51.632;13.700;2022-11-20T01:38:39;18.58;;;8.23;;
73859;SDS011;62197;51.632;13.700;2022-11-20T01:41:05;16.98;;;7.57;;
73859;SDS011;62197;51.632;13.700;2022-11-20T01:43:32;16.27;;;7.53;;
73859;SDS011;62197;51.632;13.700;2022-11-20T01:45:59;20.50;;;8.15;;
73859;SDS011;62197;51.632;13.700;2022-11-20T01:48:28;18.17;;;7.80;;
73859;SDS011;62197;51.632;13.700;2022-11-20T01:50:59;20.33;;;8.20;;
73859;SDS011;62197;51.632;13.700;2022-11-20T01:53:28;19.33;;;8.25;;
73859;SDS011;62197;51.632;13.700;2022-11-20T01:55:58;16.67;;;7.53;;
73859;SDS011;62197;51.632;13.700;2022-11-20T01:58:30;18.10;;;8.20;;
73859;SDS011;62197;51.632;13.700;2022-11-20T02:00:59;18.17;;;8.45;;
73859;SDS011;62197;51.632;13.700;2022-11-20T02:03:24;14.60;;;7.43;;
73859;SDS011;62197;51.632;13.700;2022-11-20T02:05:51;15.55;;;7.60;;
73859;SDS011;62197;51.632;13.700;2022-11-20T02:08:33;14.85;;;7.50;;
73859;SDS011;62197;51.632;13.700;2022-11-20T02:10:59;15.27;;;8.25;;
73859;SDS011;62197;51.632;13.700;2022-11-20T02:13:24;18.90;;;8.57;;
73859;SDS011;62197;51.632;13.700;2022-11-20T02:16:12;21.25;;;9.05;;
73859;SDS011;62197;51.632;13.700;2022-11-20T02:18:40;18.58;;;8.57;;
73859;SDS011;62197;51.632;13.700;2022-11-20T02:21:07;16.92;;;8.10;;
73859;SDS011;62197;51.632;13.700;2022-11-20T02:26:40;16.58;;;7.70;;
73859;SDS011;62197;51.632;13.700;2022-11-20T02:29:09;18.40;;;8.40;;
73859;SDS011;62197;51.632;13.700;2022-11-20T02:31:40;20.08;;;9.07;;
73859;SDS011;62197;51.632;13.700;2022-11-20T02:34:07;24.83;;;9.32;;
73859;SDS011;62197;51.632;13.700;2022-11-20T02:36:33;21.83;;;9.35;;
73859;SDS011;62197;51.632;13.700;2022-11-20T02:39:01;18.27;;;7.63;;
73859;SDS011;62197;51.632;13.700;2022-11-20T02:41:34;20.70;;;8.77;;
73859;SDS011;62197;51.632;13.700;2022-11-20T02:44:01;18.38;;;8.57;;
73859;SDS011;62197;51.632;13.700;2022-11-20T02:46:26;18.25;;;8.15;;
73859;SDS011;62197;51.632;13.700;2022-11-20T02:48:52;17.73;;;7.53;;
73859;SDS011;62197;51.632;13.700;2022-11-20T02:51:17;21.15;;;7.97;;
73859;SDS011;62197;51.632;13.700;2022-11-20T02:53:43;21.63;;;10.02;;
73859;SDS011;62197;51.632;13.700;2022-11-20T02:56:08;21.35;;;9.00;;
73859;SDS011;62197;51.632;13.700;2022-11-20T02:58:34;20.40;;;9.15;;
73859;SDS011;62197;51.632;13.700;2022-11-20T03:00:59;21.00;;;10.02;;
73859;SDS011;62197;51.632;13.700;2022-11-20T03:03:24;23.55;;;9.60;;
73859;SDS011;62197;51.632;13.700;2022-11-20T03:05:50;19.55;;;8.93;;
73859;SDS011;62197;51.632;13.700;2022-11-20T03:08:15;26.23;;;8.63;;
73859;SDS011;62197;51.632;13.700;2022-11-20T03:10:40;22.40;;;9.43;;
73859;SDS011;62197;51.632;13.700;2022-11-20T03:13:06;22.10;;;9.30;;
73859;SDS011;62197;51.632;13.700;2022-11-20T03:15:31;21.02;;;9.23;;
73859;SDS011;62197;51.632;13.700;2022-11-20T03:17:57;20.65;;;9.07;;
73859;SDS011;62197;51.632;13.700;2022-11-20T03:20:22;23.77;;;10.57;;
73859;SDS011;62197;51.632;13.700;2022-11-20T03:22:48;24.52;;;10.75;;
73859;SDS011;62197;51.632;13.700;2022-11-20T03:25:13;23.58;;;10.35;;
73859;SDS011;62197;51.632;13.700;2022-11-20T03:27:38;28.60;;;9.85;;
73859;SDS011;62197;51.632;13.700;2022-11-20T03:30:04;22.73;;;9.95;;
73859;SDS011;62197;51.632;13.700;2022-11-20T03:32:30;20.70;;;10.52;;
73859;SDS011;62197;51.632;13.700;2022-11-20T03:34:56;19.65;;;9.50;;
73859;SDS011;62197;51.632;13.700;2022-11-20T03:37:21;21.75;;;9.35;;
73859;SDS011;62197;51.632;13.700;2022-11-20T03:42:13;22.10;;;10.27;;
73859;SDS011;62197;51.632;13.700;2022-11-20T03:44:57;23.98;;;10.73;;
73859;SDS011;62197;51.632;13.700;2022-11-20T03:47:22;19.55;;;8.77;;
73859;SDS011;62197;51.632;13.700;2022-11-20T03:49:47;20.75;;;8.43;;
73859;SDS011;62197;51.632;13.700;2022-11-20T03:52:13;22.83;;;10.13;;
73859;SDS011;62197;51.632;13.700;2022-11-20T03:54:38;24.40;;;9.18;;
73859;SDS011;62197;51.632;13.700;2022-11-20T03:57:03;20.95;;;10.32;;
73859;SDS011;62197;51.632;13.700;2022-11-20T03:59:29;25.42;;;11.63;;
73859;SDS011;62197;51.632;13.700;2022-11-20T04:01:54;11.63;;;6.68;;
73859;SDS011;62197;51.632;13.700;2022-11-20T04:04:19;27.80;;;11.30;;
73859;SDS011;62197;51.632;13.700;2022-11-20T04:06:45;26.70;;;10.73;;
73859;SDS011;62197;51.632;13.700;2022-11-20T04:09:10;27.60;;;10.23;;
73859;SDS011;62197;51.632;13.700;2022-11-20T04:11:36;26.08;;;10.65;;
73859;SDS011;62197;51.632;13.700;2022-11-20T04:14:04;26.70;;;10.65;;
73859;SDS011;62197;51.632;13.700;2022-11-20T04:16:33;25.38;;;12.18;;
73859;SDS011;62197;51.632;13.700;2022-11-20T04:19:00;23.02;;;9.52;;
73859;SDS011;62197;51.632;13.700;2022-11-20T04:21:27;28.52;;;11.07;;
73859;SDS011;62197;51.632;13.700;2022-11-20T04:23:53;23.52;;;10.63;;
73859;SDS011;62197;51.632;13.700;2022-11-20T04:26:19;30.50;;;10.20;;
73859;SDS011;62197;51.632;13.700;2022-11-20T04:28:45;28.65;;;10.32;;
73859;SDS011;62197;51.632;13.700;2022-11-20T04:31:12;20.83;;;9.68;;
73859;SDS011;62197;51.632;13.700;2022-11-20T04:33:47;24.73;;;10.48;;
73859;SDS011;62197;51.632;13.700;2022-11-20T04:36:14;22.05;;;9.18;;
73859;SDS011;62197;51.632;13.700;2022-11-20T04:38:51;19.88;;;9.48;;
73859;SDS011;62197;51.632;13.700;2022-11-20T04:41:18;23.48;;;9.68;;
73859;SDS011;62197;51.632;13.700;2022-11-20T04:43:48;23.80;;;10.32;;
73859;SDS011;62197;51.632;13.700;2022-11-20T04:46:15;30.05;;;11.15;;
73859;SDS011;62197;51.632;13.700;2022-11-20T04:48:41;23.92;;;10.30;;
73859;SDS011;62197;51.632;13.700;2022-11-20T04:51:06;24.52;;;11.00;;
73859;SDS011;62197;51.632;13.700;2022-11-20T04:53:32;33.50;;;11.43;;
73859;SDS011;62197;51.632;13.700;2022-11-20T04:56:00;23.15;;;9.80;;
73859;SDS011;62197;51.632;13.700;2022-11-20T04:58:27;22.77;;;8.73;;
73859;SDS011;62197;51.632;13.700;2022-11-20T05:00:53;23.70;;;9.75;;
73859;SDS011;62197;51.632;13.700;2022-11-20T05:03:18;23.23;;;10.30;;
73859;SDS011;62197;51.632;13.700;2022-11-20T05:05:44;26.63;;;11.63;;
73859;SDS011;62197;51.632;13.700;2022-11-20T05:08:09;31.95;;;12.32;;
73859;SDS011;62197;51.632;13.700;2022-11-20T05:10:34;33.45;;;12.75;;
73859;SDS011;62197;51.632;13.700;2022-11-20T05:13:00;25.30;;;11.20;;
73859;SDS011;62197;51.632;13.700;2022-11-20T05:15:25;25.45;;;11.25;;
73859;SDS011;62197;51.632;13.700;2022-11-20T05:17:51;23.35;;;9.02;;
73859;SDS011;62197;51.632;13.700;2022-11-20T05:20:17;30.02;;;10.55;;
73859;SDS011;62197;51.632;13.700;2022-11-20T05:22:43;29.02;;;10.13;;
73859;SDS011;62197;51.632;13.700;2022-11-20T05:25:09;22.67;;;10.02;;
73859;SDS011;62197;51.632;13.700;2022-11-20T05:27:35;24.48;;;11.13;;
73859;SDS011;62197;51.632;13.700;2022-11-20T05:30:00;26.13;;;10.32;;
73859;SDS011;62197;51.632;13.700;2022-11-20T05:32:25;26.60;;;10.95;;
73859;SDS011;62197;51.632;13.700;2022-11-20T05:34:51;21.42;;;9.25;;
73859;SDS011;62197;51.632;13.700;2022-11-20T05:37:17;28.20;;;10.85;;
73859;SDS011;62197;51.632;13.700;2022-11-20T05:39:42;24.00;;;9.20;;
73859;SDS011;62197;51.632;13.700;2022-11-20T05:42:07;26.50;;;10.80;;
73859;SDS011;62197;51.632;13.700;2022-11-20T05:44:51;24.70;;;11.60;;
73859;SDS011;62197;51.632;13.700;2022-11-20T05:47:16;29.27;;;11.48;;
73859;SDS011;62197;51.632;13.700;2022-11-20T05:49:42;24.35;;;10.48;;
73859;SDS011;62197;51.632;13.700;2022-11-20T05:52:07;25.52;;;10.70;;
73859;SDS011;62197;51.632;13.700;2022-11-20T05:54:32;26.20;;;11.23;;
73859;SDS011;62197;51.632;13.700;2022-11-20T05:56:58;25.48;;;10.65;;
73859;SDS011;62197;51.632;13.700;2022-11-20T05:59:23;28.73;;;10.10;;
73859;SDS011;62197;51.632;13.700;2022-11-20T06:01:48;25.88;;;10.80;;
73859;SDS011;62197;51.632;13.700;2022-11-20T06:04:14;27.05;;;10.60;;
73859;SDS011;62197;51.632;13.700;2022-11-20T06:06:39;25.83;;;11.00;;
73859;SDS011;62197;51.632;13.700;2022-11-20T06:09:05;29.65;;;10.85;;
73859;SDS011;62197;51.632;13.700;2022-11-20T06:11:30;25.17;;;9.85;;
73859;SDS011;62197;51.632;13.700;2022-11-20T06:13:55;25.17;;;10.30;;
73859;SDS011;62197;51.632;13.700;2022-11-20T06:16:21;35.13;;;12.35;;
73859;SDS011;62197;51.632;13.700;2022-11-20T06:18:47;24.65;;;11.02;;
73859;SDS011;62197;51.632;13.700;2022-11-20T06:21:14;27.95;;;10.95;;
73859;SDS011;62197;51.632;13.700;2022-11-20T06:23:44;28.73;;;12.25;;
73859;SDS011;62197;51.632;13.700;2022-11-20T06:26:10;29.77;;;12.05;;
73859;SDS011;62197;51.632;13.700;2022-11-20T06:28:40;27.80;;;10.82;;
73859;SDS011;62197;51.632;13.700;2022-11-20T06:31:06;32.40;;;11.50;;
73859;SDS011;62197;51.632;13.700;2022-11-20T06:36:01;26.05;;;10.55;;
73859;SDS011;62197;51.632;13.700;2022-11-20T06:38:26;26.70;;;10.43;;
73859;SDS011;62197;51.632;13.700;2022-11-20T06:40:52;23.65;;;9.82;;
73859;SDS011;62197;51.632;13.700;2022-11-20T06:43:18;26.98;;;12.05;;
73859;SDS011;62197;51.632;13.700;2022-11-20T06:45:43;31.73;;;11.10;;
73859;SDS011;62197;51.632;13.700;2022-11-20T06:48:09;29.33;;;12.00;;
73859;SDS011;62197;51.632;13.700;2022-11-20T06:50:35;34.38;;;11.80;;
73859;SDS011;62197;51.632;13.700;2022-11-20T06:53:02;36.00;;;13.73;;
73859;SDS011;62197;51.632;13.700;2022-11-20T06:55:28;35.85;;;13.15;;
73859;SDS011;62197;51.632;13.700;2022-11-20T06:57:54;27.92;;;11.00;;
73859;SDS011;62197;51.632;13.700;2022-11-20T07:00:19;35.60;;;14.45;;
73859;SDS011;62197;51.632;13.700;2022-11-20T07:02:45;27.13;;;12.35;;
73859;SDS011;62197;51.632;13.700;2022-11-20T07:05:10;29.40;;;12.95;;
73859;SDS011;62197;51.632;13.700;2022-11-20T07:07:35;26.98;;;10.13;;
73859;SDS011;62197;51.632;13.700;2022-11-20T07:10:01;29.50;;;10.82;;
73859;SDS011;62197;51.632;13.700;2022-11-20T07:12:26;24.50;;;9.85;;
73859;SDS011;62197;51.632;13.700;2022-11-20T07:14:51;23.85;;;9.75;;
73859;SDS011;62197;51.632;13.700;2022-11-20T07:17:17;31.08;;;13.20;;
73859;SDS011;62197;51.632;13.700;2022-11-20T07:19:42;26.20;;;11.45;;
73859;SDS011;62197;51.632;13.700;2022-11-20T07:22:08;23.05;;;10.73;;
73859;SDS011;62197;51.632;13.700;2022-11-20T07:24:33;24.17;;;9.55;;
73859;SDS011;62197;51.632;13.700;2022-11-20T07:26:59;30.38;;;13.10;;
73859;SDS011;62197;51.632;13.700;2022-11-20T07:29:25;26.15;;;10.30;;
73859;SDS011;62197;51.632;13.700;2022-11-20T07:31:50;26.98;;;11.77;;
73859;SDS011;62197;51.632;13.700;2022-11-20T07:34:15;26.58;;;11.73;;
73859;SDS011;62197;51.632;13.700;2022-11-20T07:36:41;28.23;;;10.85;;
73859;SDS011;62197;51.632;13.700;2022-11-20T07:39:06;20.83;;;8.98;;
73859;SDS011;62197;51.632;13.700;2022-11-20T07:41:32;24.10;;;9.02;;
73859;SDS011;62197;51.632;13.700;2022-11-20T07:43:57;22.85;;;9.90;;
73859;SDS011;62197;51.632;13.700;2022-11-20T07:46:23;26.13;;;10.13;;
73859;SDS011;62197;51.632;13.700;2022-11-20T07:48:48;27.38;;;10.55;;
73859;SDS011;62197;51.632;13.700;2022-11-20T07:51:13;36.25;;;14.80;;
73859;SDS011;62197;51.632;13.700;2022-11-20T07:53:39;37.55;;;13.82;;
73859;SDS011;62197;51.632;13.700;2022-11-20T07:56:04;27.77;;;11.85;;
73859;SDS011;62197;51.632;13.700;2022-11-20T07:58:30;30.13;;;12.18;;
73859;SDS011;62197;51.632;13.700;2022-11-20T08:00:57;33.55;;;13.38;;
73859;SDS011;62197;51.632;13.700;2022-11-20T08:03:26;31.90;;;12.93;;
73859;SDS011;62197;51.632;13.700;2022-11-20T08:05:52;21.95;;;10.20;;
73859;SDS011;62197;51.632;13.700;2022-11-20T08:08:17;25.98;;;11.30;;
73859;SDS011;62197;51.632;13.700;2022-11-20T08:10:42;24.13;;;8.30;;
73859;SDS011;62197;51.632;13.700;2022-11-20T08:13:08;27.42;;;11.13;;
73859;SDS011;62197;51.632;13.700;2022-11-20T08:15:52;26.52;;;11.57;;
73859;SDS011;62197;51.632;13.700;2022-11-20T08:18:17;21.90;;;8.93;;
73859;SDS011;62197;51.632;13.700;2022-11-20T08:20:43;25.48;;;10.98;;
73859;SDS011;62197;51.632;13.700;2022-11-20T08:23:08;26.35;;;11.60;;
73859;SDS011;62197;51.632;13.700;2022-11-20T08:25:34;21.38;;;8.80;;
73859;SDS011;62197;51.632;13.700;2022-11-20T08:28:01;26.80;;;10.70;;
73859;SDS011;62197;51.632;13.700;2022-11-20T08:30:29;30.80;;;11.98;;
73859;SDS011;62197;51.632;13.700;2022-11-20T08:33:00;26.10;;;9.52;;
73859;SDS011;62197;51.632;13.700;2022-11-20T08:35:27;24.58;;;9.90;;
73859;SDS011;62197;51.632;13.700;2022-11-20T08:37:53;21.05;;;9.27;;
73859;SDS011;62197;51.632;13.700;2022-11-20T08:40:18;23.88;;;9.13;;
73859;SDS011;62197;51.632;13.700;2022-11-20T08:42:47;16.40;;;8.40;;
73859;SDS011;62197;51.632;13.700;2022-11-20T08:45:13;23.73;;;9.48;;
73859;SDS011;62197;51.632;13.700;2022-11-20T08:47:39;21.23;;;9.00;;
73859;SDS011;62197;51.632;13.700;2022-11-20T08:50:04;22.70;;;9.25;;
73859;SDS011;62197;51.632;13.700;2022-11-20T08:52:30;15.32;;;6.60;;
73859;SDS011;62197;51.632;13.700;2022-11-20T08:54:55;16.67;;;6.88;;
73859;SDS011;62197;51.632;13.700;2022-11-20T08:57:21;24.40;;;10.18;;
73859;SDS011;62197;51.632;13.700;2022-11-20T08:59:46;25.88;;;8.98;;
73859;SDS011;62197;51.632;13.700;2022-11-20T09:02:11;21.50;;;8.23;;
73859;SDS011;62197;51.632;13.700;2022-11-20T09:04:37;13.85;;;6.82;;
73859;SDS011;62197;51.632;13.700;2022-11-20T09:07:02;17.63;;;8.20;;
73859;SDS011;62197;51.632;13.700;2022-11-20T09:09:28;17.38;;;7.47;;
73859;SDS011;62197;51.632;13.700;2022-11-20T09:11:53;18.48;;;7.55;;
73859;SDS011;62197;51.632;13.700;2022-11-20T09:14:18;18.80;;;8.38;;
73859;SDS011;62197;51.632;13.700;2022-11-20T09:16:46;19.42;;;8.27;;
73859;SDS011;62197;51.632;13.700;2022-11-20T09:19:12;15.82;;;7.10;;
73859;SDS011;62197;51.632;13.700;2022-11-20T09:21:37;17.10;;;7.32;;
73859;SDS011;62197;51.632;13.700;2022-11-20T09:24:02;17.02;;;7.47;;
73859;SDS011;62197;51.632;13.700;2022-11-20T09:28:54;17.10;;;6.77;;
73859;SDS011;62197;51.632;13.700;2022-11-20T09:31:24;18.20;;;6.78;;
73859;SDS011;62197;51.632;13.700;2022-11-20T09:33:50;14.07;;;7.63;;
73859;SDS011;62197;51.632;13.700;2022-11-20T09:36:16;15.60;;;7.05;;
73859;SDS011;62197;51.632;13.700;2022-11-20T09:38:43;14.32;;;6.38;;
73859;SDS011;62197;51.632;13.700;2022-11-20T09:41:13;13.60;;;5.97;;
73859;SDS011;62197;51.632;13.700;2022-11-20T09:47:07;15.63;;;6.55;;
73859;SDS011;62197;51.632;13.700;2022-11-20T09:49:48;17.38;;;7.00;;
73859;SDS011;62197;51.632;13.700;2022-11-20T09:52:42;16.10;;;6.50;;
73859;SDS011;62197;51.632;13.700;2022-11-20T09:55:10;11.57;;;4.80;;
73859;SDS011;62197;51.632;13.700;2022-11-20T09:57:38;10.98;;;5.78;;
73859;SDS011;62197;51.632;13.700;2022-11-20T10:00:09;15.35;;;6.60;;
73859;SDS011;62197;51.632;13.700;2022-11-20T10:02:42;18.10;;;7.63;;
73859;SDS011;62197;51.632;13.700;2022-11-20T10:05:15;14.10;;;6.45;;
73859;SDS011;62197;51.632;13.700;2022-11-20T10:10:45;14.18;;;5.72;;
73859;SDS011;62197;51.632;13.700;2022-11-20T10:13:31;12.07;;;5.43;;
73859;SDS011;62197;51.632;13.700;2022-11-20T10:25:02;13.52;;;5.20;;
73859;SDS011;62197;51.632;13.700;2022-11-20T10:30:03;17.42;;;6.95;;
73859;SDS011;62197;51.632;13.700;2022-11-20T10:32:36;15.30;;;7.13;;
73859;SDS011;62197;51.632;13.700;2022-11-20T10:35:05;14.05;;;6.38;;
73859;SDS011;62197;51.632;13.700;2022-11-20T10:37:44;26.55;;;8.68;;
73859;SDS011;62197;51.632;13.700;2022-11-20T10:43:08;14.57;;;6.35;;
73859;SDS011;62197;51.632;13.700;2022-11-20T10:48:15;14.82;;;5.80;;
73859;SDS011;62197;51.632;13.700;2022-11-20T10:54:12;13.52;;;5.88;;
73859;SDS011;62197;51.632;13.700;2022-11-20T10:56:59;13.98;;;5.32;;
73859;SDS011;62197;51.632;13.700;2022-11-20T10:59:41;12.70;;;5.78;;
73859;SDS011;62197;51.632;13.700;2022-11-20T11:02:20;12.52;;;6.43;;
73859;SDS011;62197;51.632;13.700;2022-11-20T11:04:49;10.43;;;5.10;;
73859;SDS011;62197;51.632;13.700;2022-11-20T11:07:23;18.48;;;6.50;;
73859;SDS011;62197;51.632;13.700;2022-11-20T11:09:53;13.73;;;6.05;;
73859;SDS011;62197;51.632;13.700;2022-11-20T11:12:20;13.63;;;6.00;;
73859;SDS011;62197;51.632;13.700;2022-11-20T11:14:53;9.40;;;4.03;;
73859;SDS011;62197;51.632;13.700;2022-11-20T11:17:23;13.32;;;6.53;;
73859;SDS011;62197;51.632;13.700;2022-11-20T11:20:01;16.17;;;6.90;;
73859;SDS011;62197;51.632;13.700;2022-11-20T11:22:42;12.90;;;6.13;;
73859;SDS011;62197;51.632;13.700;2022-11-20T11:25:12;15.00;;;5.97;;
73859;SDS011;62197;51.632;13.700;2022-11-20T11:27:45;11.00;;;5.05;;
73859;SDS011;62197;51.632;13.700;2022-11-20T11:30:13;14.90;;;6.10;;
73859;SDS011;62197;51.632;13.700;2022-11-20T11:32:40;14.98;;;6.07;;
73859;SDS011;62197;51.632;13.700;2022-11-20T11:35:06;15.15;;;6.75;;
73859;SDS011;62197;51.632;13.700;2022-11-20T11:37:43;13.55;;;5.65;;
73859;SDS011;62197;51.632;13.700;2022-11-20T11:40:10;14.57;;;5.65;;
73859;SDS011;62197;51.632;13.700;2022-11-20T11:42:41;11.30;;;5.68;;
73859;SDS011;62197;51.632;13.700;2022-11-20T11:50:17;13.07;;;5.73;;
73859;SDS011;62197;51.632;13.700;2022-11-20T11:55:34;10.57;;;5.45;;
73859;SDS011;62197;51.632;13.700;2022-11-20T12:03:42;11.20;;;5.88;;
73859;SDS011;62197;51.632;13.700;2022-11-20T12:06:14;13.55;;;6.57;;
73859;SDS011;62197;51.632;13.700;2022-11-20T12:11:31;12.27;;;6.22;;
73859;SDS011;62197;51.632;13.700;2022-11-20T12:14:04;13.73;;;5.75;;
73859;SDS011;62197;51.632;13.700;2022-11-20T12:16:39;13.73;;;6.05;;
73859;SDS011;62197;51.632;13.700;2022-11-20T12:19:11;13.60;;;6.03;;
73859;SDS011;62197;51.632;13.700;2022-11-20T12:24:06;12.77;;;5.63;;
73859;SDS011;62197;51.632;13.700;2022-11-20T12:27:05;14.15;;;6.65;;
73859;SDS011;62197;51.632;13.700;2022-11-20T12:44:26;13.38;;;6.90;;
73859;SDS011;62197;51.632;13.700;2022-11-20T12:52:57;12.93;;;6.32;;
73859;SDS011;62197;51.632;13.700;2022-11-20T12:55:55;12.85;;;6.78;;
73859;SDS011;62197;51.632;13.700;2022-11-20T12:58:18;15.63;;;7.13;;
73859;SDS011;62197;51.632;13.700;2022-11-20T13:04:07;19.65;;;8.20;;
73859;SDS011;62197;51.632;13.700;2022-11-20T13:06:40;14.13;;;7.63;;
73859;SDS011;62197;51.632;13.700;2022-11-20T13:09:08;15.48;;;7.70;;
73859;SDS011;62197;51.632;13.700;2022-11-20T13:19:56;13.73;;;6.07;;
73859;SDS011;62197;51.632;13.700;2022-11-20T13:22:29;16.25;;;7.78;;
73859;SDS011;62197;51.632;13.700;2022-11-20T13:25:10;16.15;;;6.90;;
73859;SDS011;62197;51.632;13.700;2022-11-20T13:27:51;16.42;;;7.55;;
73859;SDS011;62197;51.632;13.700;2022-11-20T13:30:18;11.10;;;5.78;;
73859;SDS011;62197;51.632;13.700;2022-11-20T13:32:49;13.20;;;7.32;;
73859;SDS011;62197;51.632;13.700;2022-11-20T13:35:24;18.30;;;7.47;;
73859;SDS011;62197;51.632;13.700;2022-11-20T13:38:05;15.38;;;7.32;;
73859;SDS011;62197;51.632;13.700;2022-11-20T13:40:34;13.75;;;7.10;;
73859;SDS011;62197;51.632;13.700;2022-11-20T13:48:26;14.68;;;7.15;;
73859;SDS011;62197;51.632;13.700;2022-11-20T13:51:07;15.90;;;7.95;;
73859;SDS011;62197;51.632;13.700;2022-11-20T13:59:37;22.65;;;10.35;;
73859;SDS011;62197;51.632;13.700;2022-11-20T14:02:12;17.23;;;6.82;;
73859;SDS011;62197;51.632;13.700;2022-11-20T14:04:42;25.65;;;10.50;;
73859;SDS011;62197;51.632;13.700;2022-11-20T14:07:11;21.02;;;8.98;;
73859;SDS011;62197;51.632;13.700;2022-11-20T14:09:37;23.60;;;9.88;;
73859;SDS011;62197;51.632;13.700;2022-11-20T14:12:02;22.35;;;9.30;;
73859;SDS011;62197;51.632;13.700;2022-11-20T14:14:29;24.38;;;9.73;;
73859;SDS011;62197;51.632;13.700;2022-11-20T14:17:06;23.42;;;9.52;;
73859;SDS011;62197;51.632;13.700;2022-11-20T14:19:32;22.42;;;9.00;;
73859;SDS011;62197;51.632;13.700;2022-11-20T14:22:15;21.13;;;8.52;;
73859;SDS011;62197;51.632;13.700;2022-11-20T14:24:43;24.08;;;10.07;;
73859;SDS011;62197;51.632;13.700;2022-11-20T14:27:13;20.73;;;9.95;;
73859;SDS011;62197;51.632;13.700;2022-11-20T14:29:40;24.52;;;10.02;;
73859;SDS011;62197;51.632;13.700;2022-11-20T14:32:07;20.60;;;9.48;;
73859;SDS011;62197;51.632;13.700;2022-11-20T14:34:36;15.75;;;6.53;;
73859;SDS011;62197;51.632;13.700;2022-11-20T14:37:05;20.60;;;9.20;;
73859;SDS011;62197;51.632;13.700;2022-11-20T14:39:36;25.92;;;9.82;;
73859;SDS011;62197;51.632;13.700;2022-11-20T14:42:14;27.80;;;10.40;;
73859;SDS011;62197;51.632;13.700;2022-11-20T14:44:41;20.80;;;10.35;;
73859;SDS011;62197;51.632;13.700;2022-11-20T14:47:08;21.60;;;9.77;;
73859;SDS011;62197;51.632;13.700;2022-11-20T14:49:40;21.92;;;10.05;;
73859;SDS011;62197;51.632;13.700;2022-11-20T14:52:11;28.00;;;11.20;;
73859;SDS011;62197;51.632;13.700;2022-11-20T14:57:20;22.67;;;11.15;;
73859;SDS011;62197;51.632;13.700;2022-11-20T14:59:47;18.77;;;8.23;;
73859;SDS011;62197;51.632;13.700;2022-11-20T15:02:12;21.70;;;10.07;;
73859;SDS011;62197;51.632;13.700;2022-11-20T15:04:47;17.13;;;7.68;;
73859;SDS011;62197;51.632;13.700;2022-11-20T15:07:24;22.55;;;9.00;;
73859;SDS011;62197;51.632;13.700;2022-11-20T15:10:03;20.30;;;8.70;;
73859;SDS011;62197;51.632;13.700;2022-11-20T15:12:31;18.73;;;7.93;;
73859;SDS011;62197;51.632;13.700;2022-11-20T15:15:03;22.73;;;9.10;;
73859;SDS011;62197;51.632;13.700;2022-11-20T15:17:30;21.90;;;8.63;;
73859;SDS011;62197;51.632;13.700;2022-11-20T15:19:59;21.38;;;9.15;;
73859;SDS011;62197;51.632;13.700;2022-11-20T15:22:26;20.10;;;7.85;;
73859;SDS011;62197;51.632;13.700;2022-11-20T15:24:52;19.75;;;7.75;;
73859;SDS011;62197;51.632;13.700;2022-11-20T15:27:17;17.02;;;7.03;;
73859;SDS011;62197;51.632;13.700;2022-11-20T15:29:42;17.23;;;7.60;;
73859;SDS011;62197;51.632;13.700;2022-11-20T15:32:08;19.83;;;7.82;;
73859;SDS011;62197;51.632;13.700;2022-11-20T15:34:34;17.00;;;7.43;;
73859;SDS011;62197;51.632;13.700;2022-11-20T15:36:59;8.30;;;4.28;;
73859;SDS011;62197;51.632;13.700;2022-11-20T15:39:24;19.42;;;8.55;;
73859;SDS011;62197;51.632;13.700;2022-11-20T15:41:50;18.23;;;8.00;;
73859;SDS011;62197;51.632;13.700;2022-11-20T15:44:15;18.90;;;7.88;;
73859;SDS011;62197;51.632;13.700;2022-11-20T15:46:40;17.88;;;7.57;;
73859;SDS011;62197;51.632;13.700;2022-11-20T15:49:10;15.93;;;7.60;;
73859;SDS011;62197;51.632;13.700;2022-11-20T15:51:39;15.32;;;7.88;;
73859;SDS011;62197;51.632;13.700;2022-11-20T15:54:11;16.88;;;6.93;;
73859;SDS011;62197;51.632;13.700;2022-11-20T15:56:38;16.50;;;7.55;;
73859;SDS011;62197;51.632;13.700;2022-11-20T15:59:03;16.02;;;6.63;;
73859;SDS011;62197;51.632;13.700;2022-11-20T16:01:29;17.80;;;8.48;;
73859;SDS011;62197;51.632;13.700;2022-11-20T16:03:54;18.17;;;7.22;;
73859;SDS011;62197;51.632;13.700;2022-11-20T16:06:20;17.65;;;7.20;;